Flight Track Log - Related Links

Times and Time Zones

All times are in EDT time to prevent confusion due to time zone crossing. See the N185PF flight status page for this flight to view local times or setup timezone preferences in your user account.

Time Position Orientation Groundspeed Altitude Reporting Facility
EDT Latitude Longitude Course Direction KTS MPH feet Rate Location/Type
Wed 03:16:47 PM 44.9500 -93.0500 313° West 79 91 1,500  Level Minneapolis TRACON
Wed 03:17:47 PM 44.9667 -93.0333 35° Northeast 78 90 2,000 500 Climbing Minneapolis TRACON
Wed 03:18:47 PM 44.9833 -93.0167 35° Northeast 80 92 2,500 450 Climbing Minneapolis TRACON
Wed 03:19:47 PM 45.0167 -93.0167 360° North 69 79 2,900 450 Climbing Minneapolis TRACON
Wed 03:20:47 PM 45.0333 -93.0333 325° Northwest 71 82 3,400 450 Climbing Minneapolis TRACON
Wed 03:21:47 PM 45.0333 -93.0500 270° West 68 78 3,800 400 Climbing Minneapolis TRACON
Wed 03:22:00 PM 45.0426 -93.2223 313° West  Level FlightAware Approximate
Wed 03:22:17 PM 45.0458 -93.0653 319° Northwest 71 82 4,000  Level Minneapolis Center
Wed 03:23:19 PM 45.0625 -93.0936 310° West 93 107 4,000  Level Minneapolis Center
Wed 03:24:21 PM 45.0814 -93.1219 313° West 99 114 4,000 145 Level Minneapolis Center
Wed 03:25:23 PM 45.0914 -93.1608 290° West 106 122 4,300 390 Climbing Minneapolis Center
Wed 03:26:24 PM 45.0914 -93.1969 270° West 93 107 4,800 390 Climbing Minneapolis Center
Wed 03:27:26 PM 45.0914 -93.2317 270° West 89 102 5,100 387 Climbing Minneapolis Center
Wed 03:28:28 PM 45.0931 -93.2739 273° West 91 105 5,600 387 Climbing Minneapolis Center
Wed 03:29:30 PM 45.0936 -93.3078 271° West 87 100 5,900 194 Climbing Minneapolis Center
Wed 03:30:32 PM 45.0942 -93.3492 271° West 105 121 6,000 48 Climbing Minneapolis Center
Wed 03:31:34 PM 45.0939 -93.3967 270° West 120 138 6,000  Level Minneapolis Center
Wed 03:32:36 PM 45.0933 -93.4414 269° West 115 132 6,000  Level Minneapolis Center
Wed 03:33:38 PM 45.0772 -93.4850 242° Southwest 123 142 6,000  Level Minneapolis Center
Wed 03:34:40 PM 45.0569 -93.5353 240° Southwest 123 142 6,000  Level Minneapolis Center
Wed 03:35:41 PM 45.0406 -93.5783 242° Southwest 125 144 6,000 -49 Level Minneapolis Center
Wed 03:36:43 PM 45.0242 -93.6206 241° Southwest 123 142 5,900 -48 Descending Minneapolis Center
Wed 03:37:46 PM 45.0094 -93.6631 244° Southwest 122 140 5,900 48 Level Minneapolis Center
Wed 03:38:48 PM 44.9939 -93.7047 242° Southwest 120 138 6,000 48 Climbing Minneapolis Center
Wed 03:39:50 PM 44.9747 -93.7561 242° Southwest 123 142 6,000  Level Minneapolis Center
Wed 03:40:52 PM 44.9600 -93.8025 246° West 129 148 6,000 -48 Level Minneapolis Center
Wed 03:41:54 PM 44.9428 -93.8436 239° Southwest 123 142 5,900  Descending Minneapolis Center
Wed 03:42:55 PM 44.9283 -93.8836 243° Southwest 116 133 6,000 49 Climbing Minneapolis Center
Wed 03:43:57 PM 44.9142 -93.9250 244° Southwest 118 136 6,000  Level Minneapolis Center
Wed 03:44:59 PM 44.8981 -93.9708 244° Southwest 130 150 6,000  Level Minneapolis Center
Wed 03:46:01 PM 44.8786 -94.0233 242° Southwest 126 145 6,000 -48 Level Minneapolis Center
Wed 03:47:03 PM 44.8622 -94.0658 241° Southwest 124 143 5,900 -48 Descending Minneapolis Center
Wed 03:48:05 PM 44.8456 -94.1086 241° Southwest 124 143 5,900  Level Minneapolis Center
Wed 03:49:07 PM 44.8292 -94.1508 241° Southwest 123 142 5,900 48 Level Minneapolis Center
Wed 03:50:09 PM 44.8144 -94.1919 243° Southwest 121 139 6,000 48 Climbing Minneapolis Center
Wed 03:51:11 PM 44.7986 -94.2358 243° Southwest 125 144 6,000  Level Minneapolis Center
Wed 03:52:12 PM 44.7806 -94.2861 243° Southwest 123 142 6,000 -49 Level Minneapolis Center
Wed 03:53:14 PM 44.7644 -94.3289 242° Southwest 124 143 5,900 -48 Descending Minneapolis Center
Wed 03:54:16 PM 44.7522 -94.3647 244° Southwest 127 146 5,900  Level Minneapolis Center
Wed 03:55:18 PM 44.7339 -94.4161 243° Southwest 123 142 5,900  Level Minneapolis Center
Wed 03:56:20 PM 44.7189 -94.4575 243° Southwest 120 138 5,900 48 Level Minneapolis Center
Wed 03:57:22 PM 44.7033 -94.4994 242° Southwest 120 138 6,000 48 Climbing Minneapolis Center
Wed 03:58:24 PM 44.6803 -94.5469 236° Southwest 123 142 6,000 -48 Level Minneapolis Center
Wed 03:59:26 PM 44.6675 -94.5922 248° West 125 144 5,900 -48 Descending Minneapolis Center
Wed 04:00:28 PM 44.6556 -94.6350 249° West 120 138 5,900 48 Level Minneapolis Center
Wed 04:01:30 PM 44.6386 -94.6800 242° Southwest 118 136 6,000 48 Climbing Minneapolis Center
Wed 04:02:32 PM 44.6225 -94.7217 241° Southwest 121 139 6,000  Level Minneapolis Center
Wed 04:03:34 PM 44.6064 -94.7628 241° Southwest 120 138 6,000  Level Minneapolis Center
Wed 04:04:36 PM 44.5878 -94.8028 237° Southwest 122 140 6,000  Level Minneapolis Center
Wed 04:05:38 PM 44.5739 -94.8433 244° Southwest 119 137 6,000 -48 Level Minneapolis Center
Wed 04:06:40 PM 44.5583 -94.8856 243° Southwest 119 137 5,900 -48 Descending Minneapolis Center
Wed 04:07:42 PM 44.5383 -94.9361 241° Southwest 124 143 5,900  Level Minneapolis Center
Wed 04:08:44 PM 44.5222 -94.9753 240° Southwest 119 137 5,900 48 Level Minneapolis Center
Wed 04:09:46 PM 44.5061 -95.0158 241° Southwest 119 137 6,000 48 Climbing Minneapolis Center
Wed 04:10:48 PM 44.4933 -95.0561 246° West 115 132 6,000  Level Minneapolis Center
Wed 04:11:50 PM 44.4808 -95.0953 246° West 111 128 6,000 48 Level Minneapolis Center
Wed 04:12:52 PM 44.4653 -95.1364 242° Southwest 116 133 6,100  Climbing Minneapolis Center
Wed 04:13:54 PM 44.4450 -95.1825 238° Southwest 117 135 6,000 -97 Descending Minneapolis Center
Wed 04:14:56 PM 44.4253 -95.2200 234° Southwest 119 137 5,900 -44 Descending Minneapolis Center
Wed 04:16:10 PM 44.4053 -95.2575 233° Southwest 120 138 5,900  Level Minneapolis Center
Wed 04:17:13 PM 44.3842 -95.3022 237° Southwest 116 133 5,900 48 Level Minneapolis Center
Wed 04:18:15 PM 44.3664 -95.3422 238° Southwest 120 138 6,000 48 Climbing Minneapolis Center
Wed 04:19:17 PM 44.3439 -95.3775 228° Southwest 121 139 6,000  Level Minneapolis Center
Wed 04:20:19 PM 44.3253 -95.4239 241° Southwest 118 136 6,000  Level Minneapolis Center
Wed 04:21:33 PM 44.3089 -95.4611 238° Southwest 115 132 6,000 -44 Level Minneapolis Center
Wed 04:22:36 PM 44.2864 -95.5050 234° Southwest 115 132 5,900  Descending Minneapolis Center
Wed 04:23:38 PM 44.2675 -95.5408 234° Southwest 115 132 6,000  Climbing Minneapolis Center
Wed 04:24:40 PM 44.2478 -95.5761 232° Southwest 116 133 5,900  Descending Minneapolis Center
Wed 04:25:42 PM 44.2300 -95.6142 237° Southwest 116 133 6,000  Climbing Minneapolis Center
Wed 04:26:44 PM 44.2067 -95.6614 235° Southwest 119 137 5,900 -48 Descending Minneapolis Center
Wed 04:27:46 PM 44.1861 -95.7033 236° Southwest 125 144 5,900  Level Minneapolis Center
Wed 04:28:48 PM 44.1711 -95.7361 237° Southwest 126 145 5,900  Level Minneapolis Center
Wed 04:29:51 PM 44.1464 -95.7828 234° Southwest 125 144 5,900  Level Minneapolis Center
Wed 04:30:53 PM 44.1269 -95.8217 235° Southwest 124 143 5,900 48 Level Minneapolis Center
Wed 04:31:55 PM 44.1086 -95.8617 237° Southwest 123 142 6,000  Climbing Minneapolis Center
Wed 04:32:57 PM 44.0858 -95.9081 236° Southwest 122 140 5,900 -48 Descending Minneapolis Center
Wed 04:33:59 PM 44.0636 -95.9464 231° Southwest 124 143 5,900 48 Level Minneapolis Center
Wed 04:35:01 PM 44.0417 -95.9847 231° Southwest 125 144 6,000  Climbing Minneapolis Center
Wed 04:36:03 PM 44.0206 -96.0233 233° Southwest 126 145 5,900  Descending Minneapolis Center
Wed 04:37:05 PM 44.0011 -96.0622 235° Southwest 124 143 6,000 -97 Climbing Minneapolis Center
Wed 04:38:07 PM 43.9814 -96.1025 236° Southwest 124 143 5,700 -339 Descending Minneapolis Center
Wed 04:39:09 PM 43.9536 -96.1525 232° Southwest 131 151 5,300 -384 Descending Minneapolis Center
Wed 04:40:12 PM 43.9322 -96.1942 235° Southwest 132 152 4,900 -336 Descending Minneapolis Center
Wed 04:41:14 PM 43.9128 -96.2367 238° Southwest 132 152 4,600 -145 Descending Minneapolis Center
Wed 04:42:16 PM 43.8928 -96.2764 235° Southwest 129 148 4,600 -48 Level Minneapolis Center
Wed 04:43:18 PM 43.8753 -96.3133 237° Southwest 123 142 4,500 -48 Descending Minneapolis Center
Wed 04:44:20 PM 43.8581 -96.3503 237° Southwest 118 136 4,500  Level Minneapolis Center
Wed 04:45:22 PM 43.8314 -96.3772 216° Southwest 117 135 4,500  Level Minneapolis Center
Wed 04:46:24 PM 43.7969 -96.4083 213° Southwest 120 138 4,500  Level Minneapolis Center
Wed 04:47:26 PM 43.7697 -96.4353 216° Southwest 121 139 4,500 48 Level Minneapolis Center
Wed 04:48:28 PM 43.7419 -96.4653 218° Southwest 123 142 4,600  Climbing Minneapolis Center
Wed 04:49:30 PM 43.7147 -96.4950 218° Southwest 124 143 4,500 -242 Descending Minneapolis Center
Wed 04:50:32 PM 43.6872 -96.5281 221° Southwest 127 146 4,100 -432 Descending Minneapolis Center
Wed 04:51:35 PM 43.6547 -96.5711 224° Southwest 131 151 3,600 -480 Descending Minneapolis Center
Wed 04:52:37 PM 43.6292 -96.6072 226° Southwest 132 152 3,100 -484 Descending Minneapolis Center
Wed 04:53:39 PM 43.6039 -96.6425 225° Southwest 131 151 2,600 -435 Descending Minneapolis Center
Wed 04:54:41 PM 43.5844 -96.6794 234° Southwest 126 145 2,200 -339 Descending Minneapolis Center
Wed 04:55:43 PM 43.5703 -96.7158 242° Southwest 117 135 1,900 -242 Descending Minneapolis Center
Wed 04:56:45 PM 43.5581 -96.7486 243° Southwest 114 131 1,700 -194 Descending Minneapolis Center

Login

Don't have an account? Register now (free) for customized features, flight alerts, and more!